TVF72GA LFRS-LPPR
Flight info
| Callsign | TVF72GA |
|---|---|
| Flight time | N/A |
| Altitude | 39000 |
| Route | ERIGA DCT FUJTI DCT ATLEN DCT INSID T326 ASPOR |
| Aircraft | A20N/M-SDE2E3FGHIRWXY/LB1 |
Departure
| Time | 2026-04-30 10:39 |
|---|---|
| Airport | Nantes Atlantique Airport (LFRS) |
Arrival
| Time | N/A |
|---|---|
| Airport | Francisco de Sá Carneiro Airport (LPPR) |
| Time | Latitude | Longitude | Altitude | Speed | Heading |
|---|---|---|---|---|---|
| 2026-04-30 10:08 | 47.15688 | -1.60212 | 95 ft | 0 kts | 35° |
| 2026-04-30 10:20 | 47.15682 | -1.60218 | 95 ft | 2 kts | 37° |
| 2026-04-30 10:20 | 47.15658 | -1.60244 | 95 ft | 2 kts | 35° |
| 2026-04-30 10:20 | 47.15645 | -1.60257 | 94 ft | 2 kts | 35° |
| 2026-04-30 10:21 | 47.15633 | -1.60270 | 94 ft | 2 kts | 36° |
| 2026-04-30 10:21 | 47.15619 | -1.60275 | 94 ft | 2 kts | 346° |
| 2026-04-30 10:21 | 47.15606 | -1.60264 | 94 ft | 2 kts | 304° |
| 2026-04-30 10:21 | 47.15601 | -1.60247 | 94 ft | 0 kts | 294° |
| 2026-04-30 10:22 | 47.15600 | -1.60244 | 94 ft | 0 kts | 297° |
| 2026-04-30 10:29 | 47.15605 | -1.60257 | 94 ft | 6 kts | 298° |
| 2026-04-30 10:29 | 47.15610 | -1.60270 | 94 ft | 0 kts | 301° |
| 2026-04-30 10:36 | 47.15610 | -1.60271 | 94 ft | 0 kts | 301° |
| 2026-04-30 10:36 | 47.15630 | -1.60306 | 94 ft | 9 kts | 313° |
| 2026-04-30 10:37 | 47.15707 | -1.60406 | 93 ft | 18 kts | 322° |
| 2026-04-30 10:37 | 47.15829 | -1.60414 | 92 ft | 18 kts | 26° |
| 2026-04-30 10:37 | 47.15947 | -1.60324 | 91 ft | 19 kts | 27° |
| 2026-04-30 10:37 | 47.16076 | -1.60224 | 91 ft | 21 kts | 27° |
| 2026-04-30 10:38 | 47.16207 | -1.60128 | 91 ft | 20 kts | 28° |
| 2026-04-30 10:38 | 47.16340 | -1.60056 | 91 ft | 20 kts | 352° |
| 2026-04-30 10:38 | 47.16448 | -1.60161 | 91 ft | 19 kts | 277° |
| 2026-04-30 10:38 | 47.16345 | -1.60292 | 90 ft | 35 kts | 207° |
| 2026-04-30 10:39 | 47.15880 | -1.60645 | 91 ft | 111 kts | 207° |
| 2026-04-30 10:39 | 47.15006 | -1.61307 | 124 ft | 166 kts | 205° |
| 2026-04-30 10:39 | 47.13958 | -1.62090 | 676 ft | 172 kts | 204° |
| 2026-04-30 10:39 | 47.12931 | -1.62879 | 1527 ft | 166 kts | 204° |
| 2026-04-30 10:40 | 47.11955 | -1.63713 | 2237 ft | 169 kts | 217° |
| 2026-04-30 10:40 | 47.11412 | -1.65319 | 2631 ft | 196 kts | 264° |
| 2026-04-30 10:40 | 47.11625 | -1.67379 | 3068 ft | 216 kts | 279° |
| 2026-04-30 10:40 | 47.11943 | -1.69659 | 3483 ft | 238 kts | 278° |
| 2026-04-30 10:41 | 47.12254 | -1.72126 | 4021 ft | 256 kts | 277° |
| 2026-04-30 10:41 | 47.12566 | -1.74789 | 4564 ft | 274 kts | 277° |
| 2026-04-30 10:41 | 47.12886 | -1.77598 | 5354 ft | 283 kts | 277° |
| 2026-04-30 10:41 | 47.13205 | -1.80446 | 6300 ft | 286 kts | 276° |
| 2026-04-30 10:42 | 47.13519 | -1.83277 | 7200 ft | 289 kts | 276° |
| 2026-04-30 10:42 | 47.13838 | -1.86175 | 8140 ft | 291 kts | 276° |
| 2026-04-30 10:42 | 47.14157 | -1.89086 | 9072 ft | 293 kts | 276° |
| 2026-04-30 10:42 | 47.14480 | -1.92051 | 9962 ft | 296 kts | 276° |
| 2026-04-30 10:43 | 47.14766 | -1.95026 | 10689 ft | 303 kts | 270° |
| 2026-04-30 10:43 | 47.14405 | -1.98098 | 11219 ft | 311 kts | 243° |
| 2026-04-30 10:43 | 47.13189 | -2.00674 | 11997 ft | 311 kts | 225° |
| 2026-04-30 10:43 | 47.11729 | -2.03011 | 12808 ft | 315 kts | 225° |
| 2026-04-30 10:44 | 47.10248 | -2.05392 | 13587 ft | 320 kts | 225° |
| 2026-04-30 10:44 | 47.08752 | -2.07822 | 14342 ft | 324 kts | 225° |
| 2026-04-30 10:44 | 47.07247 | -2.10280 | 15090 ft | 329 kts | 225° |
| 2026-04-30 10:44 | 47.05727 | -2.12770 | 15833 ft | 332 kts | 226° |
| 2026-04-30 10:45 | 47.04180 | -2.15310 | 16569 ft | 336 kts | 226° |
| 2026-04-30 10:45 | 47.02618 | -2.17871 | 17278 ft | 340 kts | 226° |
| 2026-04-30 10:45 | 47.01053 | -2.20439 | 17976 ft | 343 kts | 225° |
| 2026-04-30 10:45 | 46.99440 | -2.23082 | 18668 ft | 347 kts | 225° |
| 2026-04-30 10:46 | 46.97838 | -2.25693 | 19341 ft | 350 kts | 224° |
| 2026-04-30 10:46 | 46.96059 | -2.28106 | 20002 ft | 351 kts | 215° |
| 2026-04-30 10:46 | 46.94039 | -2.30139 | 20649 ft | 352 kts | 207° |
| 2026-04-30 10:46 | 46.91892 | -2.31840 | 21272 ft | 355 kts | 205° |
| 2026-04-30 10:47 | 46.89706 | -2.33492 | 21883 ft | 358 kts | 204° |
| 2026-04-30 10:47 | 46.87466 | -2.35180 | 22497 ft | 362 kts | 205° |
| 2026-04-30 10:47 | 46.85253 | -2.36944 | 23085 ft | 367 kts | 208° |
| 2026-04-30 10:47 | 46.83055 | -2.38864 | 23683 ft | 370 kts | 208° |
| 2026-04-30 10:48 | 46.80834 | -2.40811 | 24277 ft | 373 kts | 208° |
| 2026-04-30 10:48 | 46.78634 | -2.42742 | 24836 ft | 376 kts | 208° |
| 2026-04-30 10:48 | 46.76385 | -2.44712 | 25380 ft | 379 kts | 208° |
| 2026-04-30 10:48 | 46.74112 | -2.46702 | 25916 ft | 383 kts | 207° |
| 2026-04-30 10:49 | 46.71821 | -2.48706 | 26438 ft | 386 kts | 207° |
| 2026-04-30 10:49 | 46.69528 | -2.50710 | 26935 ft | 389 kts | 207° |
| 2026-04-30 10:49 | 46.67200 | -2.52743 | 27420 ft | 392 kts | 207° |
| 2026-04-30 10:49 | 46.64865 | -2.54777 | 27890 ft | 395 kts | 207° |
| 2026-04-30 10:50 | 46.62506 | -2.56833 | 28351 ft | 398 kts | 207° |
| 2026-04-30 10:50 | 46.60109 | -2.58920 | 28785 ft | 402 kts | 207° |
| 2026-04-30 10:50 | 46.57726 | -2.60990 | 29211 ft | 405 kts | 207° |
| 2026-04-30 10:50 | 46.55319 | -2.63081 | 29636 ft | 408 kts | 207° |
| 2026-04-30 10:51 | 46.52850 | -2.65222 | 30061 ft | 410 kts | 206° |
| 2026-04-30 10:51 | 46.50407 | -2.67340 | 30468 ft | 413 kts | 206° |
| 2026-04-30 10:51 | 46.47959 | -2.69458 | 30822 ft | 415 kts | 206° |
| 2026-04-30 10:51 | 46.45456 | -2.71620 | 31173 ft | 417 kts | 206° |
| 2026-04-30 10:52 | 46.42994 | -2.73746 | 31523 ft | 419 kts | 207° |
| 2026-04-30 10:52 | 46.40481 | -2.75914 | 31865 ft | 421 kts | 207° |
| 2026-04-30 10:52 | 46.37952 | -2.78095 | 32185 ft | 423 kts | 207° |
| 2026-04-30 10:52 | 46.35425 | -2.80274 | 32486 ft | 424 kts | 208° |
| 2026-04-30 10:53 | 46.32911 | -2.82437 | 32785 ft | 426 kts | 207° |
| 2026-04-30 10:53 | 46.30363 | -2.84627 | 33159 ft | 425 kts | 208° |
| 2026-04-30 10:53 | 46.27878 | -2.86889 | 33561 ft | 424 kts | 211° |
| 2026-04-30 10:53 | 46.25503 | -2.89326 | 33951 ft | 423 kts | 215° |
| 2026-04-30 10:54 | 46.23196 | -2.91995 | 34336 ft | 421 kts | 218° |
| 2026-04-30 10:54 | 46.20979 | -2.94705 | 34681 ft | 419 kts | 218° |
| 2026-04-30 10:54 | 46.18785 | -2.97386 | 34986 ft | 418 kts | 219° |
| 2026-04-30 10:54 | 46.16573 | -3.00085 | 35252 ft | 418 kts | 219° |
| 2026-04-30 10:55 | 46.14365 | -3.02778 | 35497 ft | 418 kts | 219° |
| 2026-04-30 10:55 | 46.12143 | -3.05484 | 35725 ft | 418 kts | 219° |
| 2026-04-30 10:55 | 46.09932 | -3.08174 | 35976 ft | 418 kts | 219° |
| 2026-04-30 10:55 | 46.07706 | -3.10878 | 36202 ft | 417 kts | 219° |
| 2026-04-30 10:56 | 46.05500 | -3.13554 | 36464 ft | 417 kts | 219° |
| 2026-04-30 10:56 | 46.03301 | -3.16221 | 36734 ft | 418 kts | 219° |
| 2026-04-30 10:56 | 46.01059 | -3.18936 | 37010 ft | 417 kts | 220° |
| 2026-04-30 10:56 | 45.98868 | -3.21587 | 37296 ft | 416 kts | 220° |
| 2026-04-30 10:57 | 45.96648 | -3.24269 | 37524 ft | 416 kts | 220° |
| 2026-04-30 10:57 | 45.94443 | -3.26929 | 37725 ft | 416 kts | 220° |
| 2026-04-30 10:57 | 45.92211 | -3.29620 | 37926 ft | 417 kts | 220° |
| 2026-04-30 10:57 | 45.90015 | -3.32266 | 38095 ft | 417 kts | 220° |
| 2026-04-30 10:58 | 45.87774 | -3.34959 | 38251 ft | 418 kts | 220° |
| 2026-04-30 10:58 | 45.85556 | -3.37625 | 38425 ft | 418 kts | 220° |
| 2026-04-30 10:58 | 45.83326 | -3.40304 | 38560 ft | 420 kts | 220° |
| 2026-04-30 10:58 | 45.81118 | -3.42950 | 38694 ft | 421 kts | 220° |
| 2026-04-30 10:59 | 45.78862 | -3.45651 | 38839 ft | 421 kts | 220° |
| 2026-04-30 10:59 | 45.76608 | -3.48349 | 38977 ft | 422 kts | 220° |
| 2026-04-30 10:59 | 45.72119 | -3.53711 | 39034 ft | 423 kts | 221° |
| 2026-04-30 11:00 | 45.67618 | -3.59076 | 39036 ft | 422 kts | 221° |
| 2026-04-30 11:00 | 45.63119 | -3.64427 | 39034 ft | 422 kts | 221° |
| 2026-04-30 11:01 | 45.58634 | -3.69750 | 39042 ft | 422 kts | 220° |
| 2026-04-30 11:01 | 45.54100 | -3.75117 | 39048 ft | 422 kts | 220° |
| 2026-04-30 11:02 | 45.49623 | -3.80408 | 39040 ft | 422 kts | 220° |
| 2026-04-30 11:02 | 45.45098 | -3.85743 | 39042 ft | 421 kts | 220° |
| 2026-04-30 11:03 | 45.40615 | -3.91016 | 39055 ft | 420 kts | 220° |
| 2026-04-30 11:04 | 45.33869 | -3.98931 | 39043 ft | 420 kts | 221° |
| 2026-04-30 11:04 | 45.29360 | -4.04207 | 39049 ft | 420 kts | 221° |
| 2026-04-30 11:05 | 45.24869 | -4.09456 | 39049 ft | 421 kts | 221° |
| 2026-04-30 11:05 | 45.20355 | -4.14715 | 39055 ft | 421 kts | 221° |
| 2026-04-30 11:06 | 45.15836 | -4.19970 | 39053 ft | 420 kts | 221° |
| 2026-04-30 11:06 | 45.11332 | -4.25198 | 39044 ft | 420 kts | 221° |
| 2026-04-30 11:07 | 45.06842 | -4.30394 | 39054 ft | 420 kts | 221° |
| 2026-04-30 11:07 | 45.02320 | -4.35620 | 39050 ft | 419 kts | 221° |
| 2026-04-30 11:08 | 44.97808 | -4.40824 | 39039 ft | 419 kts | 221° |
| 2026-04-30 11:08 | 44.93335 | -4.45972 | 39045 ft | 418 kts | 221° |
| 2026-04-30 11:09 | 44.88811 | -4.51168 | 39038 ft | 418 kts | 221° |
| 2026-04-30 11:09 | 44.84410 | -4.56213 | 39046 ft | 418 kts | 221° |
| 2026-04-30 11:10 | 44.79852 | -4.61425 | 39043 ft | 417 kts | 221° |
| 2026-04-30 11:10 | 44.75367 | -4.66543 | 39030 ft | 417 kts | 220° |
| 2026-04-30 11:11 | 44.70855 | -4.71685 | 39039 ft | 417 kts | 220° |
| 2026-04-30 11:11 | 44.66341 | -4.76815 | 39030 ft | 416 kts | 220° |
| 2026-04-30 11:12 | 44.61856 | -4.81904 | 39038 ft | 415 kts | 221° |
| 2026-04-30 11:12 | 44.57391 | -4.86961 | 39043 ft | 414 kts | 220° |
| 2026-04-30 11:13 | 44.52931 | -4.92001 | 39039 ft | 413 kts | 221° |
| 2026-04-30 11:13 | 44.48348 | -4.96899 | 39039 ft | 415 kts | 218° |
| 2026-04-30 11:14 | 44.43669 | -5.01602 | 39037 ft | 415 kts | 218° |
| 2026-04-30 11:14 | 44.39000 | -5.06289 | 39040 ft | 415 kts | 218° |
| 2026-04-30 11:15 | 44.34342 | -5.10958 | 39048 ft | 414 kts | 218° |
| 2026-04-30 11:15 | 44.29662 | -5.15640 | 39056 ft | 412 kts | 218° |
| 2026-04-30 11:16 | 44.25035 | -5.20257 | 39058 ft | 411 kts | 218° |
| 2026-04-30 11:16 | 44.20392 | -5.24882 | 39063 ft | 411 kts | 218° |
| 2026-04-30 11:17 | 44.15734 | -5.29514 | 39061 ft | 411 kts | 218° |
| 2026-04-30 11:17 | 44.11105 | -5.34109 | 39064 ft | 411 kts | 218° |
| 2026-04-30 11:18 | 44.06457 | -5.38712 | 39063 ft | 410 kts | 218° |
| 2026-04-30 11:18 | 43.99522 | -5.45565 | 39070 ft | 409 kts | 218° |
| 2026-04-30 11:19 | 43.94898 | -5.50122 | 39067 ft | 409 kts | 218° |
| 2026-04-30 11:19 | 43.90267 | -5.54677 | 39074 ft | 409 kts | 218° |
| 2026-04-30 11:20 | 43.85622 | -5.59236 | 39069 ft | 408 kts | 218° |
| 2026-04-30 11:20 | 43.81017 | -5.63748 | 39068 ft | 407 kts | 219° |
| 2026-04-30 11:21 | 43.76382 | -5.68283 | 39065 ft | 407 kts | 218° |
| 2026-04-30 11:21 | 43.71754 | -5.72802 | 39058 ft | 406 kts | 218° |
| 2026-04-30 11:22 | 43.67173 | -5.77265 | 39058 ft | 407 kts | 218° |
| 2026-04-30 11:22 | 43.62548 | -5.81761 | 39058 ft | 407 kts | 218° |
| 2026-04-30 11:23 | 43.57893 | -5.86278 | 39063 ft | 407 kts | 218° |
| 2026-04-30 11:24 | 43.50972 | -5.92978 | 39055 ft | 406 kts | 218° |
| 2026-04-30 11:24 | 43.46367 | -5.97427 | 39058 ft | 406 kts | 218° |
| 2026-04-30 11:25 | 43.39455 | -6.04088 | 39059 ft | 405 kts | 218° |
| 2026-04-30 11:26 | 43.30271 | -6.12908 | 39060 ft | 404 kts | 218° |
| 2026-04-30 11:26 | 43.25667 | -6.17317 | 39071 ft | 404 kts | 218° |
| 2026-04-30 11:27 | 43.21078 | -6.21703 | 39082 ft | 404 kts | 218° |
| 2026-04-30 11:27 | 43.16472 | -6.26098 | 39088 ft | 404 kts | 218° |
| 2026-04-30 11:28 | 43.09614 | -6.32627 | 39088 ft | 402 kts | 218° |
| 2026-04-30 11:29 | 43.04998 | -6.37011 | 39094 ft | 402 kts | 218° |
| 2026-04-30 11:29 | 42.98101 | -6.43547 | 39080 ft | 402 kts | 217° |
| 2026-04-30 11:30 | 42.91208 | -6.50059 | 39083 ft | 401 kts | 217° |
| 2026-04-30 11:31 | 42.86609 | -6.54394 | 39054 ft | 402 kts | 217° |
| 2026-04-30 11:31 | 42.84324 | -6.56545 | 38732 ft | 401 kts | 218° |
| 2026-04-30 11:31 | 42.82039 | -6.58693 | 38409 ft | 398 kts | 218° |
| 2026-04-30 11:31 | 42.79737 | -6.60855 | 38081 ft | 394 kts | 218° |
| 2026-04-30 11:32 | 42.77485 | -6.62969 | 37760 ft | 392 kts | 218° |
| 2026-04-30 11:32 | 42.75251 | -6.65065 | 37444 ft | 391 kts | 217° |
| 2026-04-30 11:32 | 42.73008 | -6.67168 | 37125 ft | 391 kts | 217° |
| 2026-04-30 11:33 | 42.68541 | -6.71350 | 36491 ft | 391 kts | 217° |
| 2026-04-30 11:33 | 42.66282 | -6.73462 | 36192 ft | 392 kts | 217° |
| 2026-04-30 11:33 | 42.64011 | -6.75584 | 35949 ft | 392 kts | 217° |
| 2026-04-30 11:33 | 42.61774 | -6.77673 | 35708 ft | 392 kts | 217° |
| 2026-04-30 11:34 | 42.59527 | -6.79769 | 35469 ft | 393 kts | 217° |
| 2026-04-30 11:34 | 42.57281 | -6.81860 | 35227 ft | 393 kts | 217° |
| 2026-04-30 11:34 | 42.54991 | -6.83991 | 34980 ft | 393 kts | 217° |
| 2026-04-30 11:34 | 42.52735 | -6.86089 | 34734 ft | 393 kts | 216° |
| 2026-04-30 11:35 | 42.50500 | -6.88165 | 34492 ft | 393 kts | 216° |
| 2026-04-30 11:35 | 42.48239 | -6.90262 | 34245 ft | 394 kts | 216° |
| 2026-04-30 11:35 | 42.45992 | -6.92347 | 33988 ft | 395 kts | 216° |
| 2026-04-30 11:35 | 42.43716 | -6.94458 | 33702 ft | 396 kts | 216° |
| 2026-04-30 11:36 | 42.41441 | -6.96564 | 33299 ft | 398 kts | 216° |
| 2026-04-30 11:36 | 42.39162 | -6.98673 | 32755 ft | 400 kts | 216° |
| 2026-04-30 11:36 | 42.36868 | -7.00793 | 32122 ft | 400 kts | 216° |
| 2026-04-30 11:36 | 42.34594 | -7.02892 | 31606 ft | 398 kts | 216° |
| 2026-04-30 11:37 | 42.32322 | -7.04987 | 31149 ft | 394 kts | 216° |
| 2026-04-30 11:37 | 42.30156 | -7.07223 | 30674 ft | 389 kts | 225° |
| 2026-04-30 11:37 | 42.28379 | -7.09910 | 30261 ft | 383 kts | 234° |
| 2026-04-30 11:37 | 42.26948 | -7.12875 | 29817 ft | 379 kts | 239° |
| 2026-04-30 11:38 | 42.25581 | -7.15909 | 29331 ft | 377 kts | 239° |
| 2026-04-30 11:38 | 42.24226 | -7.18935 | 28852 ft | 375 kts | 239° |
| 2026-04-30 11:38 | 42.22892 | -7.21907 | 28387 ft | 372 kts | 239° |
| 2026-04-30 11:38 | 42.21550 | -7.24885 | 27880 ft | 371 kts | 239° |
| 2026-04-30 11:39 | 42.20215 | -7.27844 | 27385 ft | 370 kts | 239° |
| 2026-04-30 11:39 | 42.18892 | -7.30768 | 26919 ft | 367 kts | 239° |
| 2026-04-30 11:39 | 42.17561 | -7.33707 | 26414 ft | 366 kts | 239° |
| 2026-04-30 11:39 | 42.16235 | -7.36629 | 25929 ft | 364 kts | 239° |
| 2026-04-30 11:40 | 42.14929 | -7.39504 | 25449 ft | 363 kts | 239° |
| 2026-04-30 11:40 | 42.13614 | -7.42396 | 24947 ft | 362 kts | 239° |
| 2026-04-30 11:40 | 42.12314 | -7.45251 | 24447 ft | 361 kts | 239° |
| 2026-04-30 11:40 | 42.10994 | -7.48148 | 23930 ft | 360 kts | 239° |
| 2026-04-30 11:41 | 42.09687 | -7.51015 | 23418 ft | 360 kts | 238° |
| 2026-04-30 11:41 | 42.08377 | -7.53885 | 22894 ft | 359 kts | 238° |
| 2026-04-30 11:41 | 42.07093 | -7.56696 | 22435 ft | 357 kts | 238° |
| 2026-04-30 11:41 | 42.05788 | -7.59547 | 21994 ft | 354 kts | 238° |
| 2026-04-30 11:42 | 42.04516 | -7.62325 | 21564 ft | 351 kts | 238° |
| 2026-04-30 11:42 | 42.03247 | -7.65093 | 21123 ft | 349 kts | 238° |
| 2026-04-30 11:42 | 42.01963 | -7.67894 | 20683 ft | 346 kts | 238° |
| 2026-04-30 11:42 | 42.00717 | -7.70606 | 20239 ft | 344 kts | 238° |
| 2026-04-30 11:43 | 41.99471 | -7.73319 | 19773 ft | 343 kts | 237° |
| 2026-04-30 11:43 | 41.98212 | -7.76055 | 19300 ft | 342 kts | 237° |
| 2026-04-30 11:43 | 41.96970 | -7.78751 | 18838 ft | 341 kts | 237° |
| 2026-04-30 11:43 | 41.95727 | -7.81448 | 18382 ft | 339 kts | 238° |
| 2026-04-30 11:44 | 41.94482 | -7.84147 | 17935 ft | 337 kts | 238° |
| 2026-04-30 11:44 | 41.93252 | -7.86811 | 17499 ft | 335 kts | 238° |
| 2026-04-30 11:44 | 41.92034 | -7.89447 | 17099 ft | 332 kts | 237° |
| 2026-04-30 11:44 | 41.90832 | -7.92049 | 16707 ft | 329 kts | 237° |
| 2026-04-30 11:45 | 41.89629 | -7.94648 | 16302 ft | 326 kts | 237° |
| 2026-04-30 11:45 | 41.88447 | -7.97200 | 15903 ft | 324 kts | 237° |
| 2026-04-30 11:45 | 41.87258 | -7.99763 | 15500 ft | 322 kts | 237° |
| 2026-04-30 11:45 | 41.86102 | -8.02254 | 15099 ft | 319 kts | 238° |
| 2026-04-30 11:46 | 41.84945 | -8.04745 | 14685 ft | 318 kts | 237° |
| 2026-04-30 11:46 | 41.83779 | -8.07254 | 14263 ft | 316 kts | 237° |
| 2026-04-30 11:46 | 41.82616 | -8.09753 | 13838 ft | 315 kts | 238° |
| 2026-04-30 11:46 | 41.81458 | -8.12239 | 13389 ft | 314 kts | 238° |
| 2026-04-30 11:47 | 41.80286 | -8.14755 | 12959 ft | 313 kts | 238° |
| 2026-04-30 11:47 | 41.79149 | -8.17193 | 12532 ft | 312 kts | 238° |
| 2026-04-30 11:47 | 41.77988 | -8.19680 | 12092 ft | 311 kts | 238° |
| 2026-04-30 11:47 | 41.76849 | -8.22122 | 11657 ft | 310 kts | 238° |
| 2026-04-30 11:48 | 41.75711 | -8.24555 | 11249 ft | 308 kts | 238° |
| 2026-04-30 11:48 | 41.74585 | -8.26963 | 10845 ft | 307 kts | 238° |
| 2026-04-30 11:48 | 41.73447 | -8.29394 | 10441 ft | 306 kts | 238° |
| 2026-04-30 11:48 | 41.72325 | -8.31788 | 10117 ft | 300 kts | 238° |
| 2026-04-30 11:49 | 41.71244 | -8.34094 | 10036 ft | 286 kts | 238° |
| 2026-04-30 11:49 | 41.70191 | -8.36338 | 9675 ft | 284 kts | 238° |
| 2026-04-30 11:49 | 41.69141 | -8.38576 | 9282 ft | 282 kts | 237° |
| 2026-04-30 11:49 | 41.68105 | -8.40782 | 8941 ft | 280 kts | 237° |
| 2026-04-30 11:50 | 41.67078 | -8.42967 | 8597 ft | 279 kts | 237° |
| 2026-04-30 11:50 | 41.66048 | -8.45155 | 8248 ft | 276 kts | 237° |
| 2026-04-30 11:50 | 41.65028 | -8.47323 | 7892 ft | 274 kts | 237° |
| 2026-04-30 11:50 | 41.64023 | -8.49456 | 7527 ft | 272 kts | 237° |
| 2026-04-30 11:51 | 41.63016 | -8.51589 | 7196 ft | 269 kts | 237° |
| 2026-04-30 11:51 | 41.62027 | -8.53688 | 6865 ft | 268 kts | 237° |
| 2026-04-30 11:51 | 41.61026 | -8.55809 | 6524 ft | 266 kts | 237° |
| 2026-04-30 11:51 | 41.60048 | -8.57879 | 6188 ft | 265 kts | 236° |
| 2026-04-30 11:52 | 41.59072 | -8.59939 | 5859 ft | 263 kts | 237° |
| 2026-04-30 11:52 | 41.58099 | -8.61996 | 5543 ft | 261 kts | 236° |
| 2026-04-30 11:52 | 41.57132 | -8.64037 | 5223 ft | 259 kts | 236° |
| 2026-04-30 11:52 | 41.56182 | -8.66042 | 4919 ft | 257 kts | 236° |
| 2026-04-30 11:53 | 41.55231 | -8.68048 | 4613 ft | 255 kts | 235° |
| 2026-04-30 11:53 | 41.54291 | -8.70028 | 4310 ft | 253 kts | 235° |
| 2026-04-30 11:53 | 41.53348 | -8.72010 | 4031 ft | 249 kts | 236° |
| 2026-04-30 11:53 | 41.52294 | -8.73712 | 3959 ft | 232 kts | 213° |
| 2026-04-30 11:54 | 41.50861 | -8.74474 | 3963 ft | 215 kts | 188° |
| 2026-04-30 11:54 | 41.49391 | -8.74522 | 3966 ft | 208 kts | 175° |
| 2026-04-30 11:54 | 41.47954 | -8.74236 | 3960 ft | 210 kts | 169° |
| 2026-04-30 11:54 | 41.46537 | -8.73850 | 3810 ft | 209 kts | 168° |
| 2026-04-30 11:55 | 41.45104 | -8.73449 | 3566 ft | 207 kts | 168° |
| 2026-04-30 11:55 | 41.43726 | -8.73073 | 3409 ft | 197 kts | 169° |
| 2026-04-30 11:55 | 41.42393 | -8.72719 | 3171 ft | 190 kts | 169° |
| 2026-04-30 11:55 | 41.41139 | -8.72390 | 2915 ft | 177 kts | 169° |
| 2026-04-30 11:56 | 41.39958 | -8.72083 | 2675 ft | 164 kts | 169° |
| 2026-04-30 11:56 | 41.38903 | -8.71808 | 2487 ft | 150 kts | 170° |
| 2026-04-30 11:56 | 41.37919 | -8.71552 | 2284 ft | 139 kts | 170° |
| 2026-04-30 11:56 | 41.36973 | -8.71305 | 2127 ft | 139 kts | 171° |
| 2026-04-30 11:57 | 41.36015 | -8.71056 | 1974 ft | 139 kts | 171° |
| 2026-04-30 11:57 | 41.35107 | -8.70818 | 1817 ft | 129 kts | 171° |
| 2026-04-30 11:57 | 41.34228 | -8.70588 | 1667 ft | 126 kts | 171° |
| 2026-04-30 11:57 | 41.33372 | -8.70365 | 1528 ft | 126 kts | 171° |
| 2026-04-30 11:58 | 41.32506 | -8.70139 | 1383 ft | 126 kts | 171° |
| 2026-04-30 11:58 | 41.31651 | -8.69915 | 1236 ft | 125 kts | 171° |
| 2026-04-30 11:58 | 41.30793 | -8.69691 | 1085 ft | 125 kts | 171° |
| 2026-04-30 11:58 | 41.29937 | -8.69467 | 935 ft | 125 kts | 170° |
| 2026-04-30 11:59 | 41.29082 | -8.69243 | 783 ft | 125 kts | 170° |
| 2026-04-30 11:59 | 41.28220 | -8.69018 | 631 ft | 125 kts | 172° |
| 2026-04-30 11:59 | 41.27367 | -8.68816 | 479 ft | 125 kts | 170° |
| 2026-04-30 11:59 | 41.26523 | -8.68576 | 345 ft | 124 kts | 169° |
| 2026-04-30 12:00 | 41.25686 | -8.68352 | 241 ft | 117 kts | 171° |